sensor_id;sensor_type;location;lat;lon;timestamp;P1;durP1;ratioP1;P2;durP2;ratioP2
1753;SDS011;58380;48.312;9.246;2023-05-07T07:51:46;3.88;;;2.70;;
1753;SDS011;58380;48.312;9.246;2023-05-07T07:54:12;4.90;;;2.83;;
1753;SDS011;58380;48.312;9.246;2023-05-07T07:56:37;5.20;;;3.35;;
1753;SDS011;58380;48.312;9.246;2023-05-07T07:59:03;8.85;;;3.03;;
1753;SDS011;58380;48.312;9.246;2023-05-07T08:01:29;4.72;;;2.83;;
1753;SDS011;58380;48.312;9.246;2023-05-07T08:03:55;5.65;;;2.83;;
1753;SDS011;58380;48.312;9.246;2023-05-07T08:06:23;5.53;;;2.30;;
1753;SDS011;58380;48.312;9.246;2023-05-07T08:08:49;3.65;;;2.40;;
1753;SDS011;58380;48.312;9.246;2023-05-07T08:11:14;6.10;;;2.33;;
1753;SDS011;58380;48.312;9.246;2023-05-07T08:13:40;5.03;;;2.22;;
1753;SDS011;58380;48.312;9.246;2023-05-07T08:16:05;3.28;;;2.10;;
1753;SDS011;58380;48.312;9.246;2023-05-07T08:18:31;6.70;;;1.95;;
1753;SDS011;58380;48.312;9.246;2023-05-07T08:20:56;2.80;;;1.70;;
1753;SDS011;58380;48.312;9.246;2023-05-07T08:23:22;4.75;;;1.85;;
1753;SDS011;58380;48.312;9.246;2023-05-07T08:25:48;8.63;;;4.80;;
1753;SDS011;58380;48.312;9.246;2023-05-07T08:28:14;3.60;;;2.05;;
1753;SDS011;58380;48.312;9.246;2023-05-07T08:30:40;3.75;;;1.75;;
1753;SDS011;58380;48.312;9.246;2023-05-07T08:33:05;2.53;;;1.58;;
1753;SDS011;58380;48.312;9.246;2023-05-07T08:35:31;2.47;;;1.20;;
1753;SDS011;58380;48.312;9.246;2023-05-07T08:37:56;3.58;;;1.63;;
1753;SDS011;58380;48.312;9.246;2023-05-07T08:40:23;4.00;;;1.70;;
1753;SDS011;58380;48.312;9.246;2023-05-07T08:42:52;3.17;;;1.60;;
1753;SDS011;58380;48.312;9.246;2023-05-07T08:45:19;4.60;;;1.25;;
1753;SDS011;58380;48.312;9.246;2023-05-07T08:47:51;2.80;;;1.40;;
1753;SDS011;58380;48.312;9.246;2023-05-07T08:50:24;5.38;;;3.03;;
1753;SDS011;58380;48.312;9.246;2023-05-07T08:52:50;4.15;;;1.30;;
1753;SDS011;58380;48.312;9.246;2023-05-07T08:57:42;1.95;;;1.05;;
1753;SDS011;58380;48.312;9.246;2023-05-07T09:00:07;2.58;;;1.15;;
1753;SDS011;58380;48.312;9.246;2023-05-07T09:02:35;2.33;;;1.30;;
1753;SDS011;58380;48.312;9.246;2023-05-07T09:05:02;3.25;;;1.40;;
1753;SDS011;58380;48.312;9.246;2023-05-07T09:07:28;1.80;;;1.17;;
1753;SDS011;58380;48.312;9.246;2023-05-07T09:09:55;4.22;;;1.40;;
1753;SDS011;58380;48.312;9.246;2023-05-07T09:12:22;2.15;;;1.10;;
1753;SDS011;58380;48.312;9.246;2023-05-07T09:14:48;4.88;;;1.30;;
1753;SDS011;58380;48.312;9.246;2023-05-07T09:17:17;2.33;;;1.33;;
1753;SDS011;58380;48.312;9.246;2023-05-07T09:19:43;3.08;;;1.45;;
1753;SDS011;58380;48.312;9.246;2023-05-07T09:22:13;2.05;;;1.23;;
1753;SDS011;58380;48.312;9.246;2023-05-07T09:24:39;2.05;;;1.10;;
1753;SDS011;58380;48.312;9.246;2023-05-07T09:29:31;2.03;;;0.98;;
1753;SDS011;58380;48.312;9.246;2023-05-07T09:32:04;2.13;;;1.25;;
1753;SDS011;58380;48.312;9.246;2023-05-07T09:34:31;4.18;;;1.40;;
1753;SDS011;58380;48.312;9.246;2023-05-07T09:36:58;3.25;;;1.30;;
1753;SDS011;58380;48.312;9.246;2023-05-07T09:39:26;1.40;;;0.90;;
1753;SDS011;58380;48.312;9.246;2023-05-07T09:41:51;4.03;;;1.50;;
1753;SDS011;58380;48.312;9.246;2023-05-07T09:44:19;5.28;;;1.35;;
1753;SDS011;58380;48.312;9.246;2023-05-07T09:46:47;2.72;;;1.42;;
1753;SDS011;58380;48.312;9.246;2023-05-07T09:49:21;2.25;;;1.35;;
1753;SDS011;58380;48.312;9.246;2023-05-07T09:51:51;2.40;;;1.60;;
1753;SDS011;58380;48.312;9.246;2023-05-07T09:54:17;2.95;;;1.30;;
1753;SDS011;58380;48.312;9.246;2023-05-07T09:59:10;3.10;;;1.50;;
1753;SDS011;58380;48.312;9.246;2023-05-07T10:01:41;4.32;;;1.50;;
1753;SDS011;58380;48.312;9.246;2023-05-07T10:04:09;2.75;;;1.38;;
1753;SDS011;58380;48.312;9.246;2023-05-07T10:06:37;2.75;;;1.45;;
1753;SDS011;58380;48.312;9.246;2023-05-07T10:09:03;2.88;;;1.52;;
1753;SDS011;58380;48.312;9.246;2023-05-07T10:11:31;4.00;;;1.52;;
1753;SDS011;58380;48.312;9.246;2023-05-07T10:13:59;4.78;;;1.30;;
1753;SDS011;58380;48.312;9.246;2023-05-07T10:16:27;4.57;;;2.03;;
1753;SDS011;58380;48.312;9.246;2023-05-07T10:18:57;5.50;;;1.45;;
1753;SDS011;58380;48.312;9.246;2023-05-07T10:21:24;2.33;;;1.20;;
1753;SDS011;58380;48.312;9.246;2023-05-07T10:24:16;2.60;;;1.27;;
1753;SDS011;58380;48.312;9.246;2023-05-07T10:29:24;3.55;;;1.70;;
1753;SDS011;58380;48.312;9.246;2023-05-07T10:32:19;4.05;;;1.58;;
1753;SDS011;58380;48.312;9.246;2023-05-07T10:35:14;2.63;;;1.40;;
1753;SDS011;58380;48.312;9.246;2023-05-07T10:37:45;2.25;;;1.40;;
1753;SDS011;58380;48.312;9.246;2023-05-07T10:40:12;2.15;;;1.45;;
1753;SDS011;58380;48.312;9.246;2023-05-07T10:42:39;2.78;;;1.40;;
1753;SDS011;58380;48.312;9.246;2023-05-07T10:45:25;2.75;;;1.50;;
1753;SDS011;58380;48.312;9.246;2023-05-07T10:50:42;2.28;;;1.40;;
1753;SDS011;58380;48.312;9.246;2023-05-07T10:55:47;3.22;;;1.58;;
1753;SDS011;58380;48.312;9.246;2023-05-07T10:58:24;2.92;;;1.60;;
1753;SDS011;58380;48.312;9.246;2023-05-07T11:00:56;3.72;;;1.70;;
1753;SDS011;58380;48.312;9.246;2023-05-07T11:03:27;5.53;;;1.73;;
1753;SDS011;58380;48.312;9.246;2023-05-07T11:06:09;4.32;;;1.50;;
1753;SDS011;58380;48.312;9.246;2023-05-07T11:09:11;2.33;;;1.77;;
1753;SDS011;58380;48.312;9.246;2023-05-07T11:11:45;4.47;;;2.03;;
1753;SDS011;58380;48.312;9.246;2023-05-07T11:14:13;3.17;;;1.83;;
1753;SDS011;58380;48.312;9.246;2023-05-07T11:17:02;4.00;;;1.67;;
1753;SDS011;58380;48.312;9.246;2023-05-07T11:25:02;3.97;;;1.50;;
1753;SDS011;58380;48.312;9.246;2023-05-07T11:27:29;3.67;;;1.90;;
1753;SDS011;58380;48.312;9.246;2023-05-07T11:29:55;1.92;;;1.40;;
1753;SDS011;58380;48.312;9.246;2023-05-07T11:32:24;5.80;;;1.65;;
1753;SDS011;58380;48.312;9.246;2023-05-07T11:34:54;3.03;;;1.77;;
1753;SDS011;58380;48.312;9.246;2023-05-07T11:37:21;2.22;;;1.42;;
1753;SDS011;58380;48.312;9.246;2023-05-07T11:39:49;2.53;;;1.60;;
1753;SDS011;58380;48.312;9.246;2023-05-07T11:42:30;3.80;;;1.70;;
1753;SDS011;58380;48.312;9.246;2023-05-07T11:44:58;3.70;;;1.60;;
1753;SDS011;58380;48.312;9.246;2023-05-07T11:47:24;2.67;;;1.80;;
1753;SDS011;58380;48.312;9.246;2023-05-07T11:49:52;2.15;;;1.50;;
1753;SDS011;58380;48.312;9.246;2023-05-07T11:52:20;5.22;;;1.80;;
1753;SDS011;58380;48.312;9.246;2023-05-07T11:54:52;2.15;;;1.55;;
1753;SDS011;58380;48.312;9.246;2023-05-07T11:57:23;4.15;;;1.73;;
1753;SDS011;58380;48.312;9.246;2023-05-07T12:00:07;2.45;;;1.60;;
1753;SDS011;58380;48.312;9.246;2023-05-07T12:02:34;3.15;;;1.50;;
1753;SDS011;58380;48.312;9.246;2023-05-07T12:05:00;2.95;;;1.80;;
1753;SDS011;58380;48.312;9.246;2023-05-07T12:09:50;3.17;;;1.80;;
1753;SDS011;58380;48.312;9.246;2023-05-07T12:12:17;2.55;;;1.40;;
1753;SDS011;58380;48.312;9.246;2023-05-07T12:14:43;3.92;;;1.90;;
1753;SDS011;58380;48.312;9.246;2023-05-07T12:17:11;4.07;;;1.83;;
1753;SDS011;58380;48.312;9.246;2023-05-07T12:19:39;4.68;;;1.90;;
1753;SDS011;58380;48.312;9.246;2023-05-07T12:22:08;4.65;;;2.17;;
1753;SDS011;58380;48.312;9.246;2023-05-07T12:24:47;3.63;;;1.80;;
1753;SDS011;58380;48.312;9.246;2023-05-07T12:27:21;3.63;;;1.80;;
1753;SDS011;58380;48.312;9.246;2023-05-07T12:29:46;3.63;;;1.80;;
1753;SDS011;58380;48.312;9.246;2023-05-07T12:32:14;3.95;;;1.98;;
1753;SDS011;58380;48.312;9.246;2023-05-07T12:34:41;3.55;;;1.90;;
1753;SDS011;58380;48.312;9.246;2023-05-07T12:39:33;4.00;;;2.00;;
1753;SDS011;58380;48.312;9.246;2023-05-07T12:41:59;4.45;;;1.98;;
1753;SDS011;58380;48.312;9.246;2023-05-07T12:44:25;2.40;;;1.75;;
1753;SDS011;58380;48.312;9.246;2023-05-07T12:46:56;2.33;;;1.75;;
1753;SDS011;58380;48.312;9.246;2023-05-07T12:49:22;4.47;;;2.35;;
1753;SDS011;58380;48.312;9.246;2023-05-07T12:51:50;2.78;;;1.85;;
1753;SDS011;58380;48.312;9.246;2023-05-07T12:54:31;4.00;;;1.83;;
1753;SDS011;58380;48.312;9.246;2023-05-07T12:57:05;2.45;;;1.42;;
1753;SDS011;58380;48.312;9.246;2023-05-07T12:59:36;3.88;;;1.70;;
1753;SDS011;58380;48.312;9.246;2023-05-07T13:02:07;2.50;;;1.50;;
1753;SDS011;58380;48.312;9.246;2023-05-07T13:04:33;4.18;;;1.80;;
1753;SDS011;58380;48.312;9.246;2023-05-07T13:06:59;4.28;;;1.50;;
1753;SDS011;58380;48.312;9.246;2023-05-07T13:09:25;3.40;;;1.50;;
1753;SDS011;58380;48.312;9.246;2023-05-07T13:14:18;4.70;;;1.92;;
1753;SDS011;58380;48.312;9.246;2023-05-07T13:16:45;2.47;;;1.70;;
1753;SDS011;58380;48.312;9.246;2023-05-07T13:19:12;2.95;;;1.77;;
1753;SDS011;58380;48.312;9.246;2023-05-07T13:21:37;3.15;;;1.90;;
1753;SDS011;58380;48.312;9.246;2023-05-07T13:24:03;3.83;;;2.40;;
1753;SDS011;58380;48.312;9.246;2023-05-07T13:26:29;4.40;;;2.25;;
1753;SDS011;58380;48.312;9.246;2023-05-07T13:28:56;7.43;;;3.25;;
1753;SDS011;58380;48.312;9.246;2023-05-07T13:31:22;7.03;;;3.00;;
1753;SDS011;58380;48.312;9.246;2023-05-07T13:33:47;6.47;;;2.60;;
1753;SDS011;58380;48.312;9.246;2023-05-07T13:36:13;4.35;;;2.20;;
1753;SDS011;58380;48.312;9.246;2023-05-07T13:38:39;3.50;;;1.80;;
1753;SDS011;58380;48.312;9.246;2023-05-07T13:41:05;3.88;;;1.75;;
1753;SDS011;58380;48.312;9.246;2023-05-07T13:43:30;3.83;;;1.50;;
1753;SDS011;58380;48.312;9.246;2023-05-07T13:45:58;5.00;;;1.50;;
1753;SDS011;58380;48.312;9.246;2023-05-07T13:48:24;2.92;;;1.40;;
1753;SDS011;58380;48.312;9.246;2023-05-07T13:50:49;3.25;;;1.20;;
1753;SDS011;58380;48.312;9.246;2023-05-07T13:53:15;4.60;;;1.50;;
1753;SDS011;58380;48.312;9.246;2023-05-07T13:55:43;6.30;;;2.33;;
1753;SDS011;58380;48.312;9.246;2023-05-07T13:58:08;2.53;;;1.40;;
1753;SDS011;58380;48.312;9.246;2023-05-07T14:00:34;3.38;;;1.55;;
1753;SDS011;58380;48.312;9.246;2023-05-07T14:03:00;5.20;;;1.60;;
1753;SDS011;58380;48.312;9.246;2023-05-07T14:05:26;4.15;;;1.45;;
1753;SDS011;58380;48.312;9.246;2023-05-07T14:07:54;5.72;;;1.35;;
1753;SDS011;58380;48.312;9.246;2023-05-07T14:10:22;4.75;;;1.50;;
1753;SDS011;58380;48.312;9.246;2023-05-07T14:12:51;4.03;;;1.63;;
1753;SDS011;58380;48.312;9.246;2023-05-07T14:15:17;3.33;;;1.65;;
1753;SDS011;58380;48.312;9.246;2023-05-07T14:17:43;3.58;;;1.95;;
1753;SDS011;58380;48.312;9.246;2023-05-07T14:20:09;3.22;;;1.30;;
1753;SDS011;58380;48.312;9.246;2023-05-07T14:25:01;4.25;;;2.00;;
1753;SDS011;58380;48.312;9.246;2023-05-07T14:27:26;4.70;;;1.60;;
1753;SDS011;58380;48.312;9.246;2023-05-07T14:29:51;10.73;;;1.90;;
1753;SDS011;58380;48.312;9.246;2023-05-07T14:32:17;4.88;;;1.50;;
1753;SDS011;58380;48.312;9.246;2023-05-07T14:34:43;4.03;;;1.52;;
1753;SDS011;58380;48.312;9.246;2023-05-07T14:37:09;8.27;;;2.08;;
1753;SDS011;58380;48.312;9.246;2023-05-07T14:39:35;5.50;;;2.13;;
1753;SDS011;58380;48.312;9.246;2023-05-07T14:42:00;3.75;;;2.20;;
1753;SDS011;58380;48.312;9.246;2023-05-07T14:44:26;4.88;;;1.70;;
1753;SDS011;58380;48.312;9.246;2023-05-07T14:46:51;5.60;;;1.90;;
1753;SDS011;58380;48.312;9.246;2023-05-07T14:49:17;5.03;;;1.73;;
1753;SDS011;58380;48.312;9.246;2023-05-07T14:51:46;5.60;;;1.90;;
1753;SDS011;58380;48.312;9.246;2023-05-07T14:54:12;3.17;;;1.30;;
1753;SDS011;58380;48.312;9.246;2023-05-07T14:56:39;3.95;;;1.48;;
1753;SDS011;58380;48.312;9.246;2023-05-07T14:59:07;5.90;;;1.48;;
1753;SDS011;58380;48.312;9.246;2023-05-07T15:01:34;3.85;;;1.50;;
1753;SDS011;58380;48.312;9.246;2023-05-07T15:04:01;2.70;;;1.30;;
1753;SDS011;58380;48.312;9.246;2023-05-07T15:06:28;2.42;;;1.27;;
1753;SDS011;58380;48.312;9.246;2023-05-07T15:08:54;3.53;;;1.42;;
1753;SDS011;58380;48.312;9.246;2023-05-07T15:11:19;4.05;;;1.73;;
1753;SDS011;58380;48.312;9.246;2023-05-07T15:13:45;2.08;;;1.15;;
1753;SDS011;58380;48.312;9.246;2023-05-07T15:16:10;4.75;;;1.15;;
1753;SDS011;58380;48.312;9.246;2023-05-07T15:18:36;2.92;;;1.30;;
1753;SDS011;58380;48.312;9.246;2023-05-07T15:21:01;4.33;;;1.40;;
1753;SDS011;58380;48.312;9.246;2023-05-07T15:23:27;2.92;;;1.60;;
1753;SDS011;58380;48.312;9.246;2023-05-07T15:25:52;2.77;;;1.50;;
1753;SDS011;58380;48.312;9.246;2023-05-07T15:28:18;2.67;;;1.48;;
1753;SDS011;58380;48.312;9.246;2023-05-07T15:30:44;1.80;;;1.20;;
1753;SDS011;58380;48.312;9.246;2023-05-07T15:33:09;2.85;;;1.20;;
1753;SDS011;58380;48.312;9.246;2023-05-07T15:35:36;3.47;;;1.40;;
1753;SDS011;58380;48.312;9.246;2023-05-07T15:38:01;2.03;;;1.35;;
1753;SDS011;58380;48.312;9.246;2023-05-07T15:40:28;3.78;;;1.75;;
1753;SDS011;58380;48.312;9.246;2023-05-07T15:42:54;2.60;;;1.60;;
1753;SDS011;58380;48.312;9.246;2023-05-07T15:45:21;4.28;;;1.95;;
1753;SDS011;58380;48.312;9.246;2023-05-07T15:47:48;4.25;;;1.63;;
1753;SDS011;58380;48.312;9.246;2023-05-07T15:50:14;3.35;;;1.65;;
1753;SDS011;58380;48.312;9.246;2023-05-07T15:52:39;2.88;;;1.42;;
1753;SDS011;58380;48.312;9.246;2023-05-07T15:57:32;2.35;;;1.65;;
1753;SDS011;58380;48.312;9.246;2023-05-07T15:59:59;3.22;;;1.50;;
1753;SDS011;58380;48.312;9.246;2023-05-07T16:02:24;3.13;;;1.55;;
1753;SDS011;58380;48.312;9.246;2023-05-07T16:04:50;3.17;;;1.60;;
1753;SDS011;58380;48.312;9.246;2023-05-07T16:07:16;2.60;;;1.60;;
1753;SDS011;58380;48.312;9.246;2023-05-07T16:09:43;4.05;;;1.38;;
1753;SDS011;58380;48.312;9.246;2023-05-07T16:12:08;4.97;;;3.50;;
1753;SDS011;58380;48.312;9.246;2023-05-07T16:14:35;5.50;;;2.75;;
1753;SDS011;58380;48.312;9.246;2023-05-07T16:17:01;3.95;;;2.00;;
1753;SDS011;58380;48.312;9.246;2023-05-07T16:19:27;3.35;;;1.77;;
1753;SDS011;58380;48.312;9.246;2023-05-07T16:21:53;3.60;;;1.70;;
1753;SDS011;58380;48.312;9.246;2023-05-07T16:24:18;4.18;;;2.00;;
1753;SDS011;58380;48.312;9.246;2023-05-07T16:26:44;3.38;;;1.73;;
1753;SDS011;58380;48.312;9.246;2023-05-07T16:29:10;2.55;;;1.75;;
1753;SDS011;58380;48.312;9.246;2023-05-07T16:31:35;4.40;;;1.85;;
1753;SDS011;58380;48.312;9.246;2023-05-07T16:34:01;4.38;;;2.75;;
1753;SDS011;58380;48.312;9.246;2023-05-07T16:36:26;4.07;;;1.73;;
1753;SDS011;58380;48.312;9.246;2023-05-07T16:38:53;3.95;;;1.50;;
1753;SDS011;58380;48.312;9.246;2023-05-07T16:41:19;4.15;;;1.67;;
1753;SDS011;58380;48.312;9.246;2023-05-07T16:43:45;2.17;;;1.20;;
1753;SDS011;58380;48.312;9.246;2023-05-07T16:46:11;3.88;;;1.52;;
1753;SDS011;58380;48.312;9.246;2023-05-07T16:48:36;2.28;;;1.30;;
1753;SDS011;58380;48.312;9.246;2023-05-07T16:51:02;2.47;;;1.35;;
1753;SDS011;58380;48.312;9.246;2023-05-07T16:55:53;6.78;;;1.60;;
1753;SDS011;58380;48.312;9.246;2023-05-07T16:58:20;4.55;;;1.73;;
1753;SDS011;58380;48.312;9.246;2023-05-07T17:00:46;3.67;;;1.77;;
1753;SDS011;58380;48.312;9.246;2023-05-07T17:03:12;2.35;;;1.60;;
1753;SDS011;58380;48.312;9.246;2023-05-07T17:05:38;3.10;;;1.67;;
1753;SDS011;58380;48.312;9.246;2023-05-07T17:08:04;2.85;;;1.67;;
1753;SDS011;58380;48.312;9.246;2023-05-07T17:10:29;2.75;;;1.58;;
1753;SDS011;58380;48.312;9.246;2023-05-07T17:12:55;5.95;;;1.50;;
1753;SDS011;58380;48.312;9.246;2023-05-07T17:15:20;2.33;;;1.45;;
1753;SDS011;58380;48.312;9.246;2023-05-07T17:17:46;7.90;;;1.77;;
1753;SDS011;58380;48.312;9.246;2023-05-07T17:20:11;1.95;;;1.40;;
1753;SDS011;58380;48.312;9.246;2023-05-07T17:25:03;4.15;;;1.73;;
1753;SDS011;58380;48.312;9.246;2023-05-07T17:27:29;2.47;;;1.52;;
1753;SDS011;58380;48.312;9.246;2023-05-07T17:29:57;2.10;;;1.52;;
1753;SDS011;58380;48.312;9.246;2023-05-07T17:32:23;3.55;;;1.67;;
1753;SDS011;58380;48.312;9.246;2023-05-07T17:34:49;8.80;;;1.60;;
1753;SDS011;58380;48.312;9.246;2023-05-07T17:37:14;4.95;;;1.73;;
1753;SDS011;58380;48.312;9.246;2023-05-07T17:39:40;6.95;;;1.83;;
1753;SDS011;58380;48.312;9.246;2023-05-07T17:42:05;5.07;;;3.10;;
1753;SDS011;58380;48.312;9.246;2023-05-07T17:44:31;5.18;;;2.33;;
1753;SDS011;58380;48.312;9.246;2023-05-07T17:46:57;5.35;;;2.50;;
1753;SDS011;58380;48.312;9.246;2023-05-07T17:49:23;4.50;;;2.40;;
1753;SDS011;58380;48.312;9.246;2023-05-07T17:51:48;3.97;;;2.20;;
1753;SDS011;58380;48.312;9.246;2023-05-07T17:54:14;6.88;;;2.70;;
1753;SDS011;58380;48.312;9.246;2023-05-07T17:56:39;3.73;;;2.37;;
1753;SDS011;58380;48.312;9.246;2023-05-07T17:59:05;5.05;;;2.83;;
1753;SDS011;58380;48.312;9.246;2023-05-07T18:01:30;3.53;;;2.38;;
1753;SDS011;58380;48.312;9.246;2023-05-07T18:03:59;4.80;;;2.67;;
1753;SDS011;58380;48.312;9.246;2023-05-07T18:06:25;5.75;;;2.90;;
1753;SDS011;58380;48.312;9.246;2023-05-07T18:08:50;5.32;;;2.20;;
1753;SDS011;58380;48.312;9.246;2023-05-07T18:11:16;5.28;;;2.22;;
1753;SDS011;58380;48.312;9.246;2023-05-07T18:13:41;4.18;;;2.38;;
1753;SDS011;58380;48.312;9.246;2023-05-07T18:16:07;5.05;;;2.72;;
1753;SDS011;58380;48.312;9.246;2023-05-07T18:18:33;5.40;;;3.20;;
1753;SDS011;58380;48.312;9.246;2023-05-07T18:21:06;4.75;;;2.78;;
1753;SDS011;58380;48.312;9.246;2023-05-07T18:23:33;4.35;;;2.80;;
1753;SDS011;58380;48.312;9.246;2023-05-07T18:26:00;7.60;;;3.00;;
1753;SDS011;58380;48.312;9.246;2023-05-07T18:28:26;7.82;;;3.20;;
1753;SDS011;58380;48.312;9.246;2023-05-07T18:30:51;6.95;;;2.72;;
1753;SDS011;58380;48.312;9.246;2023-05-07T18:33:17;4.93;;;2.70;;
1753;SDS011;58380;48.312;9.246;2023-05-07T18:35:42;4.03;;;2.47;;
1753;SDS011;58380;48.312;9.246;2023-05-07T18:38:08;6.22;;;2.80;;
1753;SDS011;58380;48.312;9.246;2023-05-07T18:40:35;5.68;;;2.72;;
1753;SDS011;58380;48.312;9.246;2023-05-07T18:43:00;5.13;;;2.63;;
1753;SDS011;58380;48.312;9.246;2023-05-07T18:45:30;5.90;;;2.72;;
1753;SDS011;58380;48.312;9.246;2023-05-07T18:55:35;6.53;;;2.63;;
1753;SDS011;58380;48.312;9.246;2023-05-07T18:58:01;6.30;;;2.47;;
1753;SDS011;58380;48.312;9.246;2023-05-07T19:00:29;4.03;;;2.78;;
1753;SDS011;58380;48.312;9.246;2023-05-07T19:02:57;5.13;;;3.15;;
1753;SDS011;58380;48.312;9.246;2023-05-07T19:05:23;5.93;;;3.88;;
1753;SDS011;58380;48.312;9.246;2023-05-07T19:07:48;5.80;;;3.42;;
1753;SDS011;58380;48.312;9.246;2023-05-07T19:12:41;6.68;;;4.18;;
1753;SDS011;58380;48.312;9.246;2023-05-07T19:15:07;7.97;;;4.75;;
1753;SDS011;58380;48.312;9.246;2023-05-07T19:17:33;6.28;;;4.00;;
1753;SDS011;58380;48.312;9.246;2023-05-07T19:19:59;12.48;;;5.70;;
1753;SDS011;58380;48.312;9.246;2023-05-07T19:22:25;10.13;;;6.07;;
1753;SDS011;58380;48.312;9.246;2023-05-07T19:24:50;6.35;;;4.30;;
1753;SDS011;58380;48.312;9.246;2023-05-07T19:27:16;6.35;;;3.47;;
1753;SDS011;58380;48.312;9.246;2023-05-07T19:29:42;5.47;;;3.37;;
1753;SDS011;58380;48.312;9.246;2023-05-07T19:32:07;4.20;;;2.83;;
1753;SDS011;58380;48.312;9.246;2023-05-07T19:34:33;4.97;;;3.15;;
1753;SDS011;58380;48.312;9.246;2023-05-07T19:36:59;5.97;;;2.95;;
1753;SDS011;58380;48.312;9.246;2023-05-07T19:39:25;8.97;;;3.07;;
1753;SDS011;58380;48.312;9.246;2023-05-07T19:41:50;4.77;;;2.67;;
1753;SDS011;58380;48.312;9.246;2023-05-07T19:44:15;5.97;;;2.60;;
1753;SDS011;58380;48.312;9.246;2023-05-07T19:46:41;4.85;;;2.88;;
1753;SDS011;58380;48.312;9.246;2023-05-07T19:49:09;4.90;;;2.83;;
1753;SDS011;58380;48.312;9.246;2023-05-07T19:51:35;3.70;;;2.50;;
1753;SDS011;58380;48.312;9.246;2023-05-07T19:54:01;6.07;;;2.73;;
1753;SDS011;58380;48.312;9.246;2023-05-07T19:56:26;4.72;;;2.88;;
1753;SDS011;58380;48.312;9.246;2023-05-07T19:58:52;4.05;;;2.90;;
1753;SDS011;58380;48.312;9.246;2023-05-07T20:01:18;5.57;;;3.33;;
1753;SDS011;58380;48.312;9.246;2023-05-07T20:03:43;4.47;;;2.83;;
1753;SDS011;58380;48.312;9.246;2023-05-07T20:06:09;3.90;;;2.20;;
1753;SDS011;58380;48.312;9.246;2023-05-07T20:08:34;3.67;;;2.28;;
1753;SDS011;58380;48.312;9.246;2023-05-07T20:11:00;3.50;;;2.42;;
1753;SDS011;58380;48.312;9.246;2023-05-07T20:13:26;3.80;;;2.47;;
1753;SDS011;58380;48.312;9.246;2023-05-07T20:15:55;3.17;;;2.53;;
1753;SDS011;58380;48.312;9.246;2023-05-07T20:18:25;5.25;;;2.78;;
1753;SDS011;58380;48.312;9.246;2023-05-07T20:20:52;5.80;;;2.95;;
1753;SDS011;58380;48.312;9.246;2023-05-07T20:23:18;6.03;;;2.80;;
1753;SDS011;58380;48.312;9.246;2023-05-07T20:25:43;6.60;;;2.80;;
1753;SDS011;58380;48.312;9.246;2023-05-07T20:28:10;6.00;;;2.95;;
1753;SDS011;58380;48.312;9.246;2023-05-07T20:30:36;4.57;;;3.10;;
1753;SDS011;58380;48.312;9.246;2023-05-07T20:33:01;5.67;;;3.03;;
1753;SDS011;58380;48.312;9.246;2023-05-07T20:35:28;5.18;;;2.75;;
1753;SDS011;58380;48.312;9.246;2023-05-07T20:37:54;4.15;;;2.53;;
1753;SDS011;58380;48.312;9.246;2023-05-07T20:40:20;4.82;;;2.72;;
1753;SDS011;58380;48.312;9.246;2023-05-07T20:42:46;4.00;;;2.53;;
1753;SDS011;58380;48.312;9.246;2023-05-07T20:45:11;5.85;;;2.95;;
1753;SDS011;58380;48.312;9.246;2023-05-07T20:47:37;3.80;;;2.50;;
1753;SDS011;58380;48.312;9.246;2023-05-07T20:50:02;3.92;;;2.78;;
1753;SDS011;58380;48.312;9.246;2023-05-07T20:52:28;3.85;;;2.72;;
